createdAt,value
2023-03-26T00:01:33.374Z,190.33
2023-03-26T00:04:01.174Z,196.27
2023-03-26T00:06:33.851Z,197.33
2023-03-26T00:09:01.481Z,206.10
2023-03-26T00:11:29.642Z,198.57
2023-03-26T00:13:58.104Z,201.10
2023-03-26T00:16:28.748Z,197.10
2023-03-26T00:18:57.531Z,193.57
2023-03-26T00:21:28.005Z,202.07
2023-03-26T00:24:05.411Z,206.87
2023-03-26T00:26:34.552Z,203.27
2023-03-26T00:29:03.542Z,207.43
2023-03-26T00:31:31.408Z,198.77
2023-03-26T00:33:58.486Z,200.40
2023-03-26T00:36:27.005Z,194.97
2023-03-26T00:38:54.894Z,195.13
2023-03-26T00:41:31.050Z,189.83
2023-03-26T00:44:00.434Z,192.10
2023-03-26T00:46:31.213Z,192.23
2023-03-26T00:48:59.932Z,186.43
2023-03-26T00:51:28.492Z,188.17
2023-03-26T00:53:57.365Z,187.83
2023-03-26T00:56:25.227Z,186.67
2023-03-26T00:58:52.291Z,185.57
2023-03-26T01:01:27.852Z,186.00
2023-03-26T01:04:08.883Z,185.67
2023-03-26T01:06:41.989Z,180.13
2023-03-26T01:09:19.671Z,185.00
2023-03-26T01:11:48.379Z,187.53
2023-03-26T01:14:24.667Z,188.27
2023-03-26T01:16:56.934Z,188.83
2023-03-26T01:20:06.494Z,188.83
2023-03-26T01:22:37.700Z,186.40
2023-03-26T01:25:05.594Z,191.43
2023-03-26T01:27:55.995Z,186.40
2023-03-26T01:30:44.729Z,181.47
2023-03-26T01:33:37.592Z,182.23
2023-03-26T01:36:29.590Z,181.90
2023-03-26T01:39:40.548Z,183.13
2023-03-26T01:42:14.383Z,182.20
2023-03-26T01:45:01.408Z,183.10
2023-03-26T01:47:29.059Z,184.33
2023-03-26T01:49:56.039Z,179.73
2023-03-26T01:52:26.106Z,184.53
2023-03-26T01:54:55.252Z,185.20
2023-03-26T01:57:50.042Z,181.30
2023-03-26T02:00:28.379Z,184.73
2023-03-26T02:03:20.342Z,183.93
2023-03-26T02:05:51.012Z,182.73
2023-03-26T02:08:35.842Z,183.73
2023-03-26T02:11:11.523Z,186.73
2023-03-26T02:13:45.350Z,181.67
2023-03-26T02:16:16.530Z,187.13
2023-03-26T02:18:45.997Z,185.00
2023-03-26T02:21:21.369Z,182.53
2023-03-26T02:23:57.825Z,180.47
2023-03-26T02:26:25.779Z,181.50
2023-03-26T02:28:59.031Z,181.33
2023-03-26T02:31:26.460Z,182.43
2023-03-26T02:33:55.632Z,184.33
2023-03-26T02:36:27.873Z,186.20
2023-03-26T02:39:00.190Z,184.97
2023-03-26T02:41:29.334Z,186.20
2023-03-26T02:44:06.879Z,184.90
2023-03-26T02:47:03.157Z,188.73
2023-03-26T02:50:05.662Z,184.20
2023-03-26T02:52:55.965Z,184.57
2023-03-26T02:55:23.097Z,181.73
2023-03-26T02:57:52.759Z,183.57
2023-03-26T03:00:22.945Z,182.50
2023-03-26T03:03:10.115Z,178.97
2023-03-26T03:05:57.205Z,180.60
2023-03-26T03:08:35.779Z,185.37
2023-03-26T03:11:24.484Z,187.37
2023-03-26T03:13:52.626Z,186.30
2023-03-26T03:16:23.664Z,186.50
2023-03-26T03:18:54.695Z,187.77
2023-03-26T03:21:29.787Z,184.53
2023-03-26T03:24:00.274Z,180.23
2023-03-26T03:26:31.036Z,181.90
2023-03-26T03:29:04.308Z,182.30
2023-03-26T03:31:31.600Z,185.77
2023-03-26T03:34:03.467Z,183.13
2023-03-26T03:36:38.318Z,186.93
2023-03-26T03:39:13.623Z,178.53
2023-03-26T03:41:40.890Z,181.47
2023-03-26T03:44:12.448Z,177.67
2023-03-26T03:46:39.533Z,184.37
2023-03-26T03:49:06.576Z,181.30
2023-03-26T03:51:37.334Z,180.97
2023-03-26T03:54:17.070Z,180.03
2023-03-26T03:56:48.979Z,182.93
2023-03-26T03:59:34.505Z,183.67
2023-03-26T04:02:05.117Z,180.13
2023-03-26T04:04:57.512Z,181.23
2023-03-26T04:07:33.080Z,185.37
2023-03-26T04:10:08.836Z,181.47
2023-03-26T04:12:54.201Z,181.07
2023-03-26T04:15:36.170Z,177.80
2023-03-26T04:18:04.058Z,180.37
2023-03-26T04:20:32.157Z,183.53
2023-03-26T04:23:00.481Z,179.97
2023-03-26T04:25:30.485Z,184.10
2023-03-26T04:28:08.672Z,179.67
2023-03-26T04:31:00.649Z,183.03
2023-03-26T04:33:36.600Z,179.83
2023-03-26T04:36:05.508Z,185.07
2023-03-26T04:38:45.205Z,181.67
2023-03-26T04:41:15.368Z,178.63
2023-03-26T04:44:01.961Z,176.87
2023-03-26T04:46:55.273Z,141.50
2023-03-26T04:49:32.190Z,145.17
2023-03-26T04:51:59.832Z,146.90
2023-03-26T04:54:49.515Z,134.03
2023-03-26T04:57:43.670Z,146.60
2023-03-26T05:00:20.380Z,143.97
2023-03-26T05:02:57.753Z,129.60
2023-03-26T05:05:26.369Z,145.20
2023-03-26T05:07:54.831Z,171.87
2023-03-26T05:10:22.562Z,175.13
2023-03-26T05:13:09.813Z,173.00
2023-03-26T05:15:39.787Z,179.47
2023-03-26T05:18:13.414Z,175.20
2023-03-26T05:20:47.554Z,172.07
2023-03-26T05:23:14.755Z,182.60
2023-03-26T05:25:47.039Z,182.90
2023-03-26T05:28:19.270Z,172.33
2023-03-26T05:30:56.980Z,166.43
2023-03-26T05:33:27.869Z,145.57
2023-03-26T05:36:15.220Z,166.73
2023-03-26T05:38:49.919Z,183.13
2023-03-26T05:41:49.986Z,172.13
2023-03-26T05:44:17.815Z,171.80
2023-03-26T05:46:45.267Z,173.80
2023-03-26T05:49:20.287Z,169.50
2023-03-26T05:51:48.378Z,155.20
2023-03-26T05:54:42.683Z,127.77
2023-03-26T05:57:33.162Z,128.03
2023-03-26T06:00:18.628Z,112.57
2023-03-26T06:02:46.924Z,166.57
2023-03-26T06:05:43.262Z,173.27
2023-03-26T06:08:21.917Z,178.50
2023-03-26T06:10:51.788Z,147.97
2023-03-26T06:13:19.547Z,163.30
2023-03-26T06:15:48.956Z,141.83
2023-03-26T06:18:42.067Z,132.30
2023-03-26T06:21:25.640Z,166.27
2023-03-26T06:24:00.349Z,143.83
2023-03-26T06:26:48.268Z,173.67
2023-03-26T06:29:33.323Z,165.13
2023-03-26T06:32:20.796Z,174.67
2023-03-26T06:34:53.998Z,169.37
2023-03-26T06:37:21.573Z,169.67
2023-03-26T06:39:53.379Z,122.97
2023-03-26T06:43:07.815Z,139.30
2023-03-26T06:45:52.021Z,119.90
2023-03-26T06:48:38.115Z,151.10
2023-03-26T06:51:16.822Z,177.33
2023-03-26T06:54:04.233Z,180.30
2023-03-26T06:57:03.382Z,179.60
2023-03-26T06:59:53.258Z,183.27
2023-03-26T07:02:38.622Z,160.63
2023-03-26T07:05:23.913Z,109.70
2023-03-26T07:08:09.274Z,155.80
2023-03-26T07:11:06.012Z,143.60
2023-03-26T07:13:32.975Z,160.30
2023-03-26T07:16:18.408Z,179.00
2023-03-26T07:19:08.151Z,123.50
2023-03-26T07:21:38.015Z,133.93
2023-03-26T07:24:16.847Z,208.97
2023-03-26T07:27:23.634Z,181.00
2023-03-26T07:30:01.101Z,190.10
2023-03-26T07:33:02.232Z,188.03
2023-03-26T07:36:15.835Z,184.13
2023-03-26T07:39:02.777Z,172.80
2023-03-26T07:42:06.736Z,123.47
2023-03-26T07:45:11.985Z,176.83
2023-03-26T07:47:47.015Z,163.97
2023-03-26T07:50:20.919Z,180.20
2023-03-26T07:53:06.696Z,179.47
2023-03-26T07:56:17.456Z,172.03
2023-03-26T07:59:10.600Z,178.10
2023-03-26T08:02:30.085Z,160.73
2023-03-26T08:05:35.087Z,181.97
2023-03-26T08:08:54.328Z,187.00
2023-03-26T08:12:05.093Z,161.80
2023-03-26T08:14:53.672Z,168.30
2023-03-26T08:17:39.709Z,218.57
2023-03-26T08:20:31.072Z,82.77
2023-03-26T08:23:09.458Z,93.50
2023-03-26T08:26:14.033Z,105.30
2023-03-26T08:29:00.570Z,138.47
2023-03-26T08:31:39.332Z,180.60
2023-03-26T08:34:10.895Z,136.10
2023-03-26T08:36:38.211Z,183.83
2023-03-26T08:39:06.510Z,187.10
2023-03-26T08:42:21.544Z,161.40
2023-03-26T08:45:11.471Z,181.83
2023-03-26T08:48:03.773Z,182.50
2023-03-26T08:51:01.526Z,224.27
2023-03-26T08:53:53.322Z,87.87
2023-03-26T08:56:57.030Z,123.53
2023-03-26T09:00:05.921Z,121.67
2023-03-26T09:02:58.575Z,144.90
2023-03-26T09:05:59.686Z,154.73
2023-03-26T09:09:19.300Z,187.50
2023-03-26T09:12:01.667Z,186.83
2023-03-26T09:14:57.709Z,177.37
2023-03-26T09:17:58.066Z,188.10
2023-03-26T09:21:02.310Z,167.27
2023-03-26T09:23:55.238Z,180.53
2023-03-26T09:27:07.189Z,189.03
2023-03-26T09:29:45.943Z,187.53
2023-03-26T09:32:47.236Z,181.93
2023-03-26T09:35:39.746Z,158.67
2023-03-26T09:38:27.110Z,184.60
2023-03-26T09:41:04.480Z,170.57
2023-03-26T09:44:16.560Z,111.47
2023-03-26T09:47:00.915Z,155.80
2023-03-26T09:49:48.657Z,175.27
2023-03-26T09:52:37.994Z,185.03
2023-03-26T09:55:39.340Z,182.97
2023-03-26T09:58:27.343Z,192.13
2023-03-26T10:01:16.179Z,173.70
2023-03-26T10:04:27.378Z,230.13
2023-03-26T10:07:25.394Z,162.27
2023-03-26T10:10:49.755Z,167.07
2023-03-26T10:13:25.725Z,174.00
2023-03-26T10:17:03.073Z,179.83
2023-03-26T10:19:39.368Z,185.97
2023-03-26T10:22:30.520Z,199.10
2023-03-26T10:25:22.538Z,185.50
2023-03-26T10:28:33.900Z,189.40
2023-03-26T10:31:39.969Z,201.33
2023-03-26T10:34:39.604Z,193.23
2023-03-26T10:37:52.440Z,193.83
2023-03-26T10:40:55.385Z,191.13
2023-03-26T10:44:16.935Z,187.90
2023-03-26T10:47:14.494Z,226.90
2023-03-26T10:50:38.168Z,195.60
2023-03-26T10:53:23.266Z,336.43
2023-03-26T10:56:01.276Z,200.60
2023-03-26T10:58:49.639Z,202.67
2023-03-26T11:01:38.282Z,174.33
2023-03-26T11:04:20.054Z,180.50
2023-03-26T11:07:23.366Z,160.73
2023-03-26T11:10:08.448Z,126.17
2023-03-26T11:12:45.801Z,182.67
2023-03-26T11:15:22.888Z,129.17
2023-03-26T11:18:22.419Z,14.27
2023-03-26T11:21:18.819Z,21.83
2023-03-26T11:24:32.593Z,26.33
2023-03-26T11:27:15.208Z,64.70
2023-03-26T11:30:17.931Z,120.78
2023-03-26T11:32:51.747Z,138.50
2023-03-26T11:35:40.141Z,181.83
2023-03-26T11:38:27.168Z,119.90
2023-03-26T11:40:57.044Z,107.53
2023-03-26T11:43:49.652Z,83.65
2023-03-26T11:46:21.971Z,76.75
2023-03-26T11:48:54.031Z,39.97
2023-03-26T11:51:40.939Z,141.13
2023-03-26T11:54:11.811Z,39.42
2023-03-26T11:57:05.803Z,90.38
2023-03-26T12:00:08.447Z,29.63
2023-03-26T12:02:41.561Z,31.98
2023-03-26T12:05:31.222Z,69.65
2023-03-26T12:08:01.450Z,96.13
2023-03-26T12:10:43.061Z,42.00
2023-03-26T12:13:21.239Z,40.67
2023-03-26T12:15:49.550Z,69.68
2023-03-26T12:18:35.059Z,149.48
2023-03-26T12:21:08.944Z,133.85
2023-03-26T12:23:50.277Z,88.60
2023-03-26T12:26:34.015Z,24.38
2023-03-26T12:29:13.676Z,46.38
2023-03-26T12:32:06.068Z,109.13
2023-03-26T12:34:36.468Z,131.43
2023-03-26T12:37:06.940Z,150.53
2023-03-26T12:40:08.862Z,154.43
2023-03-26T12:44:52.813Z,135.97
2023-03-26T12:45:32.439Z,149.27
2023-03-26T12:48:03.450Z,155.25
2023-03-26T12:50:47.534Z,161.17
2023-03-26T12:53:32.023Z,172.70
2023-03-26T12:56:36.063Z,168.63
2023-03-26T12:59:32.961Z,183.73
2023-03-26T13:02:42.045Z,176.80
2023-03-26T13:05:36.581Z,159.33
2023-03-26T13:08:39.545Z,70.05
2023-03-26T13:11:52.786Z,195.90
2023-03-26T13:14:56.662Z,187.07
2023-03-26T13:17:47.027Z,186.53
2023-03-26T13:20:33.115Z,183.63
2023-03-26T13:23:32.144Z,190.90
2023-03-26T13:26:15.937Z,190.83
2023-03-26T13:29:23.581Z,199.27
2023-03-26T13:32:31.138Z,184.10
2023-03-26T13:35:02.099Z,188.90
2023-03-26T13:37:42.478Z,211.97
2023-03-26T13:40:48.885Z,195.43
2023-03-26T13:43:58.679Z,183.83
2023-03-26T13:46:35.511Z,190.90
2023-03-26T13:49:08.419Z,189.90
2023-03-26T13:51:51.511Z,178.20
2023-03-26T13:54:26.363Z,138.30
2023-03-26T13:57:05.515Z,155.63
2023-03-26T13:59:44.375Z,178.73
2023-03-26T14:02:28.819Z,175.50
2023-03-26T14:05:06.150Z,180.50
2023-03-26T14:07:52.374Z,184.73
2023-03-26T14:10:34.051Z,187.00
2023-03-26T14:13:24.629Z,186.53
2023-03-26T14:15:57.562Z,186.27
2023-03-26T14:19:33.706Z,188.63
2023-03-26T14:22:21.168Z,188.37
2023-03-26T14:25:05.138Z,185.60
2023-03-26T14:28:19.180Z,190.70
2023-03-26T14:31:13.626Z,188.83
2023-03-26T14:34:10.100Z,190.40
2023-03-26T14:37:07.731Z,189.37
2023-03-26T14:39:55.452Z,188.87
2023-03-26T14:42:38.718Z,186.77
2023-03-26T14:45:54.967Z,179.57
2023-03-26T14:48:37.259Z,186.67
2023-03-26T14:51:29.145Z,188.80
2023-03-26T14:54:06.883Z,207.90
2023-03-26T14:57:13.374Z,185.27
2023-03-26T14:59:51.260Z,198.97
2023-03-26T15:02:50.981Z,184.27
2023-03-26T15:05:37.104Z,175.33
2023-03-26T15:08:12.887Z,188.73
2023-03-26T15:10:42.814Z,179.00
2023-03-26T15:13:28.385Z,201.30
2023-03-26T15:16:13.145Z,178.67
2023-03-26T15:19:20.581Z,204.73
2023-03-26T15:22:35.422Z,207.13
2023-03-26T15:25:34.291Z,180.97
2023-03-26T15:28:36.897Z,173.90
2023-03-26T15:31:16.546Z,158.10
2023-03-26T15:34:25.694Z,146.73
2023-03-26T15:37:42.469Z,169.63
2023-03-26T15:40:36.927Z,174.67
2023-03-26T15:43:13.384Z,180.40
2023-03-26T15:46:24.673Z,177.93
2023-03-26T15:49:16.453Z,181.20
2023-03-26T15:52:08.218Z,181.77
2023-03-26T15:54:59.883Z,165.23
2023-03-26T15:57:41.161Z,159.60
2023-03-26T16:00:22.654Z,175.27
2023-03-26T16:03:10.903Z,98.60
2023-03-26T16:06:18.739Z,154.27
2023-03-26T16:09:12.643Z,164.70
2023-03-26T16:11:56.673Z,189.37
2023-03-26T16:14:36.341Z,191.17
2023-03-26T16:17:09.894Z,192.93
2023-03-26T16:19:58.384Z,210.53
2023-03-26T16:22:53.393Z,206.80
2023-03-26T16:25:27.357Z,198.93
2023-03-26T16:28:11.596Z,204.33
2023-03-26T16:30:42.135Z,201.40
2023-03-26T16:33:37.472Z,196.30
2023-03-26T16:36:34.261Z,208.97
2023-03-26T16:39:04.819Z,189.63
2023-03-26T16:42:05.660Z,191.30
2023-03-26T16:44:47.700Z,191.73
2023-03-26T16:47:43.209Z,191.60
2023-03-26T16:50:33.213Z,189.67
2023-03-26T16:53:23.198Z,187.83
2023-03-26T16:56:17.813Z,187.70
2023-03-26T16:58:58.701Z,199.50
2023-03-26T17:01:46.408Z,195.20
2023-03-26T17:04:24.750Z,195.93
2023-03-26T17:07:23.244Z,214.87
2023-03-26T17:10:28.337Z,274.57
2023-03-26T17:13:44.343Z,257.13
2023-03-26T17:16:28.168Z,221.83
2023-03-26T17:19:00.605Z,244.87
2023-03-26T17:22:09.278Z,238.97
2023-03-26T17:24:52.537Z,256.90
2023-03-26T17:28:19.734Z,216.27
2023-03-26T17:30:55.976Z,212.27
2023-03-26T17:33:27.867Z,210.07
2023-03-26T17:36:12.829Z,208.93
2023-03-26T17:38:39.705Z,208.50
2023-03-26T17:41:11.701Z,207.87
2023-03-26T17:43:50.632Z,212.93
2023-03-26T17:46:39.462Z,212.10
2023-03-26T17:49:12.557Z,211.00
2023-03-26T17:51:50.502Z,212.93
2023-03-26T17:54:46.461Z,212.90
2023-03-26T17:57:33.756Z,192.17
2023-03-26T18:00:01.733Z,191.47
2023-03-26T18:02:42.649Z,183.63
2023-03-26T18:05:14.784Z,194.23
2023-03-26T18:08:24.833Z,182.93
2023-03-26T18:11:28.469Z,181.30
2023-03-26T18:14:53.342Z,180.67
2023-03-26T18:17:20.846Z,188.87
2023-03-26T18:20:09.932Z,191.67
2023-03-26T18:22:38.576Z,168.10
2023-03-26T18:25:05.951Z,157.23
2023-03-26T18:27:40.427Z,161.73
2023-03-26T18:30:23.429Z,160.17
2023-03-26T18:33:12.428Z,157.87
2023-03-26T18:35:49.829Z,174.27
2023-03-26T18:38:36.046Z,116.53
2023-03-26T18:41:10.907Z,106.43
2023-03-26T18:43:44.483Z,115.53
2023-03-26T18:46:14.283Z,91.50
2023-03-26T18:48:41.819Z,120.20
2023-03-26T18:51:09.115Z,160.53
2023-03-26T18:53:59.285Z,136.27
2023-03-26T18:56:42.179Z,122.03
2023-03-26T18:59:45.140Z,141.10
2023-03-26T19:02:14.487Z,179.63
2023-03-26T19:04:46.074Z,170.93
2023-03-26T19:07:25.843Z,155.90
2023-03-26T19:09:56.719Z,159.10
2023-03-26T19:12:33.998Z,167.07
2023-03-26T19:15:13.692Z,175.30
2023-03-26T19:17:46.702Z,185.93
2023-03-26T19:20:24.277Z,155.37
2023-03-26T19:22:51.644Z,136.27
2023-03-26T19:25:31.561Z,145.53
2023-03-26T19:27:59.170Z,132.37
2023-03-26T19:30:36.089Z,180.23
2023-03-26T19:33:13.877Z,201.03
2023-03-26T19:35:44.019Z,171.67
2023-03-26T19:38:42.645Z,168.60
2023-03-26T19:41:35.461Z,176.57
2023-03-26T19:44:16.842Z,143.20
2023-03-26T19:46:53.322Z,91.10
2023-03-26T19:49:32.041Z,138.37
2023-03-26T19:52:17.372Z,94.37
2023-03-26T19:55:01.297Z,109.97
2023-03-26T19:57:34.697Z,131.13
2023-03-26T20:00:02.034Z,201.73
2023-03-26T20:02:32.146Z,140.13
2023-03-26T20:04:59.143Z,163.03
2023-03-26T20:07:35.569Z,152.47
2023-03-26T20:12:52.476Z,156.07
2023-03-26T20:15:25.425Z,208.03
2023-03-26T20:17:53.652Z,151.43
2023-03-26T20:20:25.150Z,169.43
2023-03-26T20:22:53.899Z,133.17
2023-03-26T20:25:31.413Z,175.43
2023-03-26T20:27:59.246Z,152.40
2023-03-26T20:33:12.380Z,83.77
2023-03-26T20:35:41.207Z,54.37
2023-03-26T20:38:09.754Z,171.33
2023-03-26T20:40:38.370Z,49.40
2023-03-26T20:43:12.399Z,115.13
2023-03-26T20:45:40.244Z,125.73
2023-03-26T20:48:10.225Z,109.10
2023-03-26T20:51:01.600Z,129.77
2023-03-26T20:53:28.325Z,139.87
2023-03-26T20:55:55.250Z,148.93
2023-03-26T20:58:31.334Z,155.47
2023-03-26T21:01:02.854Z,142.87
2023-03-26T21:03:30.084Z,205.93
2023-03-26T21:06:04.630Z,204.13
2023-03-26T21:08:35.609Z,153.87
2023-03-26T21:11:26.373Z,138.93
2023-03-26T21:14:21.205Z,134.90
2023-03-26T21:16:48.670Z,126.50
2023-03-26T21:19:16.259Z,189.73
2023-03-26T21:22:14.229Z,105.00
2023-03-26T21:25:17.310Z,86.10
2023-03-26T21:27:56.295Z,106.17
2023-03-26T21:30:23.708Z,70.77
2023-03-26T21:32:51.434Z,82.13
2023-03-26T21:35:19.257Z,66.83
2023-03-26T21:37:48.682Z,77.87
2023-03-26T21:40:18.264Z,111.30
2023-03-26T21:42:52.095Z,96.30
2023-03-26T21:45:20.721Z,77.40
2023-03-26T21:47:48.910Z,63.13
2023-03-26T21:50:20.883Z,93.13
2023-03-26T21:52:50.962Z,114.43
2023-03-26T21:55:21.367Z,118.93
2023-03-26T21:58:12.645Z,106.37
2023-03-26T22:01:21.483Z,116.53
2023-03-26T22:04:13.383Z,89.00
2023-03-26T22:06:53.124Z,106.23
2023-03-26T22:09:26.599Z,103.67
2023-03-26T22:12:03.409Z,133.67
2023-03-26T22:14:30.325Z,130.97
2023-03-26T22:16:57.405Z,130.40
2023-03-26T22:19:24.396Z,126.80
2023-03-26T22:21:51.548Z,141.27
2023-03-26T22:24:18.603Z,126.70
2023-03-26T22:26:45.695Z,95.03
2023-03-26T22:29:14.036Z,42.60
2023-03-26T22:31:41.748Z,48.73
2023-03-26T22:34:09.244Z,29.83
2023-03-26T22:36:37.954Z,37.63
2023-03-26T22:39:07.212Z,60.90
2023-03-26T22:41:34.229Z,43.57
2023-03-26T22:44:12.812Z,51.00
2023-03-26T22:46:49.232Z,129.33
2023-03-26T22:49:17.507Z,39.83
2023-03-26T22:51:44.459Z,46.67
2023-03-26T22:54:11.416Z,35.50
2023-03-26T22:56:38.473Z,33.03
2023-03-26T22:59:05.476Z,35.07
2023-03-26T23:01:32.502Z,44.73
2023-03-26T23:03:59.610Z,63.50
2023-03-26T23:06:26.668Z,60.60
2023-03-26T23:08:54.796Z,56.53
2023-03-26T23:11:25.051Z,56.67
2023-03-26T23:13:52.478Z,101.63
2023-03-26T23:16:21.617Z,50.53
2023-03-26T23:18:48.884Z,50.23
2023-03-26T23:21:19.584Z,89.30
2023-03-26T23:23:48.735Z,89.53
2023-03-26T23:26:16.658Z,69.97
2023-03-26T23:28:44.753Z,63.80
2023-03-26T23:31:12.562Z,104.30
2023-03-26T23:33:46.120Z,95.50
2023-03-26T23:36:18.179Z,84.17
2023-03-26T23:38:47.656Z,94.53
2023-03-26T23:41:16.887Z,90.13
2023-03-26T23:43:54.750Z,97.97
2023-03-26T23:46:30.081Z,105.07
2023-03-26T23:48:59.975Z,108.40
2023-03-26T23:51:27.197Z,55.23
2023-03-26T23:53:54.276Z,56.20
2023-03-26T23:56:21.647Z,54.60
2023-03-26T23:58:49.008Z,55.17
